createdAt,value
2022-10-06T00:02:35.200Z,15.68
2022-10-06T00:07:37.918Z,15.77
2022-10-06T00:12:42.086Z,15.68
2022-10-06T00:17:46.269Z,15.64
2022-10-06T00:22:49.865Z,15.73
2022-10-06T00:27:54.161Z,15.67
2022-10-06T00:33:00.743Z,15.66
2022-10-06T00:38:04.648Z,15.56
2022-10-06T00:43:07.689Z,15.65
2022-10-06T00:48:16.537Z,15.49
2022-10-06T00:53:19.559Z,15.51
2022-10-06T00:58:22.731Z,15.51
2022-10-06T01:03:30.860Z,15.24
2022-10-06T01:08:35.412Z,15.17
2022-10-06T01:13:38.219Z,15.14
2022-10-06T01:18:44.742Z,14.86
2022-10-06T01:23:49.864Z,14.70
2022-10-06T01:28:53.267Z,14.54
2022-10-06T01:33:57.165Z,14.50
2022-10-06T01:39:01.831Z,14.45
2022-10-06T01:44:04.967Z,14.29
2022-10-06T01:49:07.873Z,14.15
2022-10-06T01:54:12.400Z,14.17
2022-10-06T01:59:15.232Z,14.02
2022-10-06T02:04:18.344Z,13.93
2022-10-06T02:09:22.518Z,13.84
2022-10-06T02:14:25.798Z,13.82
2022-10-06T02:19:29.795Z,14.09
2022-10-06T02:24:35.760Z,14.12
2022-10-06T02:29:39.370Z,14.05
2022-10-06T02:34:43.604Z,14.03
2022-10-06T02:39:48.575Z,14.13
2022-10-06T02:44:52.194Z,14.02
2022-10-06T02:49:55.089Z,14.14
2022-10-06T02:54:59.374Z,14.08
2022-10-06T03:00:02.123Z,14.15
2022-10-06T03:05:08.505Z,13.98
2022-10-06T03:10:12.914Z,13.75
2022-10-06T03:15:15.779Z,13.67
2022-10-06T03:20:18.870Z,13.54
2022-10-06T03:25:23.248Z,13.44
2022-10-06T03:30:26.049Z,13.45
2022-10-06T03:35:29.079Z,13.52
2022-10-06T03:40:33.910Z,13.40
2022-10-06T03:45:36.801Z,13.29
2022-10-06T03:50:39.678Z,13.20
2022-10-06T03:55:43.905Z,13.10
2022-10-06T04:00:46.995Z,13.04
2022-10-06T04:05:54.215Z,13.00
2022-10-06T04:11:06.901Z,12.88
2022-10-06T04:16:14.873Z,12.90
2022-10-06T04:21:18.565Z,12.82
2022-10-06T04:26:24.559Z,12.86
2022-10-06T04:31:30.221Z,12.84
2022-10-06T04:36:35.672Z,12.82
2022-10-06T04:41:41.757Z,12.73
2022-10-06T04:46:46.941Z,12.78
2022-10-06T04:51:50.841Z,12.63
2022-10-06T04:56:56.698Z,12.77
2022-10-06T05:02:02.627Z,12.61
2022-10-06T05:07:06.079Z,12.57
2022-10-06T05:12:10.856Z,12.51
2022-10-06T05:17:14.516Z,12.43
2022-10-06T05:22:17.640Z,12.47
2022-10-06T05:27:22.215Z,12.36
2022-10-06T05:32:25.119Z,12.40
2022-10-06T05:37:29.577Z,12.40
2022-10-06T05:42:34.129Z,12.29
2022-10-06T05:47:37.013Z,12.44
2022-10-06T05:52:40.457Z,12.33
2022-10-06T05:57:44.814Z,12.56
2022-10-06T06:02:47.964Z,12.48
2022-10-06T06:07:51.181Z,12.67
2022-10-06T06:12:55.411Z,12.78
2022-10-06T06:18:27.678Z,13.15
2022-10-06T06:23:34.337Z,13.38
2022-10-06T06:28:40.239Z,14.50
2022-10-06T06:33:43.634Z,14.90
2022-10-06T06:38:49.648Z,14.90
2022-10-06T06:43:54.864Z,15.93
2022-10-06T06:49:07.212Z,18.15
2022-10-06T06:54:14.492Z,20.01
2022-10-06T06:59:21.285Z,18.46
2022-10-06T07:04:26.509Z,18.58
2022-10-06T07:09:29.521Z,18.94
2022-10-06T07:15:01.148Z,18.32
2022-10-06T07:20:24.541Z,19.23
2022-10-06T07:25:27.962Z,16.91
2022-10-06T07:30:40.432Z,15.73
2022-10-06T07:35:47.411Z,15.02
2022-10-06T07:41:17.939Z,15.06
2022-10-06T07:46:21.233Z,14.61
2022-10-06T07:51:33.224Z,14.38
2022-10-06T07:56:37.741Z,14.71
2022-10-06T08:01:44.076Z,14.97
2022-10-06T08:06:49.246Z,14.83
2022-10-06T08:11:52.915Z,14.87
2022-10-06T08:16:57.461Z,15.08
2022-10-06T08:22:04.620Z,15.12
2022-10-06T08:27:09.703Z,15.24
2022-10-06T08:32:13.814Z,15.34
2022-10-06T08:37:20.136Z,15.27
2022-10-06T08:42:31.919Z,15.28
2022-10-06T08:47:37.923Z,15.39
2022-10-06T08:52:50.404Z,15.48
2022-10-06T09:03:23.807Z,15.84
2022-10-06T09:08:41.987Z,15.85
2022-10-06T09:13:52.128Z,15.95
2022-10-06T09:19:12.401Z,16.08
2022-10-06T09:24:17.983Z,16.05
2022-10-06T09:29:20.831Z,16.44
2022-10-06T09:34:34.903Z,16.18
2022-10-06T09:39:39.424Z,16.33
2022-10-06T09:44:50.116Z,16.32
2022-10-06T09:50:16.422Z,16.07
2022-10-06T09:55:22.857Z,16.58
2022-10-06T10:00:30.391Z,16.83
2022-10-06T10:05:37.811Z,16.97
2022-10-06T10:10:41.369Z,16.63
2022-10-06T10:15:53.522Z,16.52
2022-10-06T10:21:00.437Z,16.68
2022-10-06T10:26:17.476Z,16.87
2022-10-06T10:31:27.498Z,16.95
2022-10-06T10:36:38.448Z,16.91
2022-10-06T10:41:47.127Z,16.63
2022-10-06T10:46:53.404Z,17.04
2022-10-06T10:52:03.738Z,16.95
2022-10-06T10:57:14.885Z,16.46
2022-10-06T11:02:20.798Z,16.55
2022-10-06T11:07:29.464Z,16.71
2022-10-06T11:12:54.457Z,16.71
2022-10-06T11:18:05.733Z,16.81
2022-10-06T11:23:31.598Z,16.84
2022-10-06T11:28:46.017Z,17.12
2022-10-06T11:33:52.712Z,17.53
2022-10-06T11:39:03.945Z,17.10
2022-10-06T11:44:16.739Z,17.44
2022-10-06T11:49:53.247Z,17.43
2022-10-06T11:55:07.339Z,17.25
2022-10-06T12:00:46.011Z,17.11
2022-10-06T12:05:56.252Z,17.18
2022-10-06T12:11:01.397Z,17.34
2022-10-06T12:22:01.966Z,17.23
2022-10-06T12:27:49.327Z,17.15
2022-10-06T12:32:57.353Z,16.77
2022-10-06T12:38:04.719Z,16.71
2022-10-06T12:43:29.894Z,16.77
2022-10-06T12:48:40.086Z,17.00
2022-10-06T12:53:52.443Z,17.02
2022-10-06T12:58:56.819Z,17.11
2022-10-06T13:04:01.023Z,16.83
2022-10-06T13:09:08.543Z,16.93
2022-10-06T13:14:15.000Z,16.81
2022-10-06T13:19:21.742Z,16.63
2022-10-06T13:24:27.485Z,16.78
2022-10-06T13:29:31.773Z,16.68
2022-10-06T13:34:43.239Z,16.77
2022-10-06T13:39:46.685Z,16.70
2022-10-06T13:44:57.503Z,16.69
2022-10-06T13:50:04.102Z,16.72
2022-10-06T13:55:16.604Z,16.64
2022-10-06T14:00:23.652Z,16.59
2022-10-06T14:05:32.661Z,16.55
2022-10-06T14:10:47.465Z,16.43
2022-10-06T14:15:53.993Z,16.49
2022-10-06T14:20:58.106Z,16.48
2022-10-06T14:26:01.356Z,16.39
2022-10-06T14:31:05.661Z,16.34
2022-10-06T14:36:17.036Z,16.36
2022-10-06T14:41:24.908Z,16.44
2022-10-06T14:46:30.042Z,16.41
2022-10-06T14:51:36.580Z,16.33
2022-10-06T14:56:41.133Z,16.29
2022-10-06T15:01:45.717Z,16.22
2022-10-06T15:07:06.270Z,16.15
2022-10-06T15:12:09.081Z,16.11
2022-10-06T15:17:13.201Z,16.12
2022-10-06T15:22:15.990Z,16.04
2022-10-06T15:27:36.177Z,15.94
2022-10-06T15:32:40.279Z,15.88
2022-10-06T15:37:43.064Z,15.88
2022-10-06T15:42:46.675Z,15.98
2022-10-06T15:47:52.803Z,15.88
2022-10-06T15:52:55.537Z,15.61
2022-10-06T15:57:58.512Z,15.51
2022-10-06T16:03:09.206Z,15.39
2022-10-06T16:08:12.101Z,15.36
2022-10-06T16:13:15.206Z,15.37
2022-10-06T16:18:19.282Z,15.38
2022-10-06T16:23:22.738Z,15.29
2022-10-06T16:28:25.846Z,15.05
2022-10-06T16:33:29.969Z,15.02
2022-10-06T16:38:32.893Z,14.92
2022-10-06T16:43:37.671Z,14.73
2022-10-06T16:48:43.792Z,14.53
2022-10-06T16:53:48.623Z,14.29
2022-10-06T16:58:53.908Z,14.14
2022-10-06T17:04:03.691Z,14.06
2022-10-06T17:09:08.094Z,13.92
2022-10-06T17:14:11.331Z,13.88
2022-10-06T17:19:19.955Z,13.82
2022-10-06T17:24:25.494Z,13.67
2022-10-06T17:29:28.386Z,13.59
2022-10-06T17:34:34.207Z,13.51
2022-10-06T17:39:41.565Z,13.52
2022-10-06T17:44:53.235Z,13.48
2022-10-06T17:49:57.468Z,13.42
2022-10-06T17:55:01.004Z,13.32
2022-10-06T18:00:07.435Z,13.27
2022-10-06T18:05:16.690Z,13.26
2022-10-06T18:10:37.360Z,13.11
2022-10-06T18:15:40.635Z,13.08
2022-10-06T18:20:49.509Z,13.04
2022-10-06T18:25:52.434Z,13.08
2022-10-06T18:30:55.243Z,12.94
2022-10-06T18:36:11.713Z,12.87
2022-10-06T18:41:31.514Z,12.80
2022-10-06T18:46:52.274Z,12.78
2022-10-06T18:51:58.524Z,12.74
2022-10-06T18:57:02.034Z,12.63
2022-10-06T19:02:13.729Z,12.69
2022-10-06T19:07:20.801Z,12.81
2022-10-06T19:12:23.981Z,12.65
2022-10-06T19:17:29.020Z,12.46
2022-10-06T19:22:37.040Z,12.53
2022-10-06T19:27:40.518Z,12.36
2022-10-06T19:32:44.327Z,12.33
2022-10-06T19:37:51.176Z,12.34
2022-10-06T19:42:54.093Z,12.28
2022-10-06T19:47:58.073Z,12.21
2022-10-06T19:53:04.692Z,12.25
2022-10-06T19:58:17.058Z,12.24
2022-10-06T20:03:50.822Z,12.17
2022-10-06T20:09:09.144Z,12.06
2022-10-06T20:19:57.811Z,12.01
2022-10-06T20:25:18.480Z,12.03
2022-10-06T20:30:24.324Z,12.04
2022-10-06T20:35:27.090Z,11.95
2022-10-06T20:40:49.118Z,11.88
2022-10-06T20:45:54.720Z,11.86
2022-10-06T20:50:57.772Z,11.76
2022-10-06T20:56:01.920Z,11.78
2022-10-06T21:01:06.988Z,11.66
2022-10-06T21:06:10.450Z,11.75
2022-10-06T21:11:17.680Z,11.71
2022-10-06T21:16:21.273Z,11.74
2022-10-06T21:21:24.190Z,11.53
2022-10-06T21:26:28.891Z,11.67
2022-10-06T21:31:32.142Z,11.61
2022-10-06T21:36:35.097Z,11.55
2022-10-06T21:41:40.261Z,11.48
2022-10-06T21:46:48.155Z,11.32
2022-10-06T21:51:52.740Z,11.49
2022-10-06T21:56:57.868Z,11.42
2022-10-06T22:02:00.712Z,11.55
2022-10-06T22:07:03.544Z,11.50
2022-10-06T22:12:07.674Z,11.32
2022-10-06T22:17:10.398Z,11.32
2022-10-06T22:22:13.176Z,11.26
2022-10-06T22:27:20.379Z,11.28
2022-10-06T22:32:24.167Z,11.30
2022-10-06T22:37:28.188Z,11.20
2022-10-06T22:42:32.318Z,11.28
2022-10-06T22:47:35.039Z,11.08
2022-10-06T22:52:37.796Z,11.11
2022-10-06T22:57:42.180Z,11.07
2022-10-06T23:02:46.246Z,11.04
2022-10-06T23:07:53.465Z,11.02
2022-10-06T23:12:59.757Z,10.99
2022-10-06T23:18:03.852Z,10.82
2022-10-06T23:23:06.727Z,10.94
2022-10-06T23:28:10.824Z,10.80
2022-10-06T23:33:13.662Z,10.75
2022-10-06T23:38:16.393Z,10.81
2022-10-06T23:43:20.876Z,10.80
2022-10-06T23:48:23.632Z,10.76
2022-10-06T23:53:26.848Z,10.65
2022-10-06T23:58:30.945Z,10.74
